Time;durP1;ratioP1;P1;durP2;ratioP2;P2;SDS_P1;SDS_P2;PMS_P1;PMS_P2;Temp;Humidity;BMP_temperature;BMP_pressure;BME280_temperature;BME280_humidity;BME280_pressure;Samples;Min_cycle;Max_cycle;Signal;HPM_P1;HPM_P2
2022/11/28 00:01:27;;;;;;;6.00;2.60;;;5.60;99.90;;;;;;5097743;28;20069;-68
2022/11/28 00:03:55;;;;;;;5.00;2.33;;;5.70;99.90;;;;;;5097690;28;20024;-68
2022/11/28 00:06:22;;;;;;;5.22;2.50;;;5.70;99.90;;;;;;5098224;28;20020;-67
2022/11/28 00:08:49;;;;;;;4.65;2.78;;;5.70;99.90;;;;;;5079833;28;20111;-67
2022/11/28 00:11:17;;;;;;;4.55;2.35;;;5.70;99.90;;;;;;5096647;28;20039;-68
2022/11/28 00:13:45;;;;;;;6.55;3.05;;;5.70;99.90;;;;;;5098066;28;20065;-68
2022/11/28 00:16:22;;;;;;;5.07;2.22;;;5.70;99.90;;;;;;5098051;28;20470;-68
2022/11/28 00:18:51;;;;;;;4.60;1.98;;;5.70;99.90;;;;;;5079610;28;20039;-67
2022/11/28 00:21:19;;;;;;;5.68;2.00;;;5.70;99.90;;;;;;5097391;28;20020;-68
2022/11/28 00:23:48;;;;;;;5.22;2.55;;;5.70;99.90;;;;;;5097383;28;20109;-68
2022/11/28 00:26:25;;;;;;;4.65;2.42;;;5.70;99.90;;;;;;5097311;28;20024;-67
2022/11/28 00:28:52;;;;;;;3.53;2.70;;;5.80;99.90;;;;;;5097467;28;20055;-68
2022/11/28 00:31:24;;;;;;;4.40;2.22;;;5.80;99.90;;;;;;5097240;28;20416;-68
2022/11/28 00:33:52;;;;;;;4.57;2.45;;;5.80;99.90;;;;;;5097630;28;20024;-67
2022/11/28 00:36:20;;;;;;;5.25;2.50;;;5.90;99.90;;;;;;5079192;28;20028;-68
2022/11/28 00:38:47;;;;;;;5.60;2.58;;;5.90;99.90;;;;;;5097587;28;20020;-68
2022/11/28 00:41:17;;;;;;;4.15;2.47;;;5.90;99.90;;;;;;5079109;28;20105;-68
2022/11/28 00:43:46;;;;;;;6.15;2.75;;;5.90;99.90;;;;;;5097092;28;20047;-67
2022/11/28 00:46:15;;;;;;;7.70;2.25;;;5.90;99.90;;;;;;5096986;28;20023;-68
2022/11/28 00:48:43;;;;;;;4.65;2.47;;;5.90;99.90;;;;;;5079118;28;20107;-67
2022/11/28 00:51:21;;;;;;;6.57;2.63;;;5.90;99.90;;;;;;5096912;28;20016;-68
2022/11/28 00:53:51;;;;;;;4.68;2.72;;;5.90;99.90;;;;;;5097406;28;20313;-68
2022/11/28 00:56:22;;;;;;;6.07;2.50;;;5.90;99.90;;;;;;5096801;28;20089;-68
2022/11/28 00:58:49;;;;;;;4.90;2.53;;;5.90;99.90;;;;;;5096301;28;20125;-68
2022/11/28 01:01:24;;;;;;;5.57;2.92;;;5.90;99.90;;;;;;5096772;28;20016;-68
2022/11/28 01:03:55;;;;;;;6.53;2.65;;;5.90;99.90;;;;;;5078774;28;20031;-68
2022/11/28 01:06:27;;;;;;;5.47;2.97;;;5.90;99.90;;;;;;5096730;28;20028;-68
2022/11/28 01:08:55;;;;;;;5.80;2.70;;;5.80;99.90;;;;;;5097261;28;20020;-68
2022/11/28 01:11:22;;;;;;;5.60;2.72;;;5.80;99.90;;;;;;5078814;28;20119;-68
2022/11/28 01:13:49;;;;;;;5.85;3.50;;;5.80;99.90;;;;;;5078884;28;20402;-68
2022/11/28 01:16:17;;;;;;;6.15;2.58;;;5.80;99.90;;;;;;5097172;28;20027;-68
2022/11/28 01:18:44;;;;;;;6.65;3.50;;;5.80;99.90;;;;;;5097061;28;20020;-68
2022/11/28 01:21:11;;;;;;;10.68;3.53;;;5.80;99.90;;;;;;5096595;28;20066;-68
2022/11/28 01:23:38;;;;;;;5.78;3.40;;;5.80;99.90;;;;;;5078817;28;20026;-67
2022/11/28 01:26:07;;;;;;;6.03;3.38;;;5.80;99.90;;;;;;5078839;28;20017;-68
2022/11/28 01:28:35;;;;;;;5.82;2.85;;;5.80;99.90;;;;;;5096567;28;20066;-68
2022/11/28 01:31:05;;;;;;;5.53;2.78;;;5.80;99.90;;;;;;5096511;28;20023;-68
2022/11/28 01:33:33;;;;;;;5.25;3.03;;;5.80;99.90;;;;;;5097062;28;20016;-67
2022/11/28 01:36:01;;;;;;;5.63;2.78;;;5.80;99.90;;;;;;5097537;28;20323;-68
2022/11/28 01:38:29;;;;;;;4.55;2.53;;;5.80;99.90;;;;;;5096760;28;20324;-67
2022/11/28 01:40:56;;;;;;;5.40;2.83;;;5.80;99.90;;;;;;5096411;28;20052;-67
2022/11/28 01:43:23;;;;;;;4.88;2.42;;;5.80;99.90;;;;;;5096519;28;20021;-68
2022/11/28 01:45:51;;;;;;;5.05;2.75;;;5.80;99.90;;;;;;5078368;28;20491;-68
2022/11/28 01:48:39;;;;;;;7.28;2.60;;;5.80;99.90;;;;;;5096906;28;20312;-67
2022/11/28 01:51:08;;;;;;;5.95;2.60;;;5.80;99.90;;;;;;5096277;28;20031;-67
2022/11/28 01:53:41;;;;;;;5.95;2.97;;;5.80;99.90;;;;;;5096411;28;20020;-67
2022/11/28 01:56:29;;;;;;;4.75;2.75;;;5.80;99.90;;;;;;5096443;28;20071;-68
2022/11/28 01:59:03;;;;;;;7.32;3.17;;;5.80;99.90;;;;;;5096245;28;20040;-67
2022/11/28 02:01:31;;;;;;;5.07;2.90;;;5.80;99.90;;;;;;5096502;28;20020;-67
2022/11/28 02:03:59;;;;;;;6.20;2.72;;;5.70;99.90;;;;;;5096225;28;20031;-67
2022/11/28 02:06:27;;;;;;;5.78;3.08;;;5.70;99.90;;;;;;5096197;28;20079;-67
2022/11/28 02:08:55;;;;;;;5.47;3.05;;;5.70;99.90;;;;;;5096714;28;20051;-68
2022/11/28 02:11:41;;;;;;;4.38;2.50;;;5.60;99.90;;;;;;5098450;28;20024;-67
2022/11/28 02:14:35;;;;;;;5.90;2.63;;;5.60;99.90;;;;;;5100368;28;20103;-67
2022/11/28 02:17:31;;;;;;;7.72;3.30;;;5.60;99.90;;;;;;5100090;28;20269;-67
2022/11/28 02:20:40;;;;;;;6.45;2.85;;;5.60;99.90;;;;;;5055483;28;20035;-68
2022/11/28 02:23:29;;;;;;;5.65;3.00;;;5.60;99.90;;;;;;5099990;28;20043;-68
2022/11/28 02:26:08;;;;;;;7.85;3.40;;;5.60;99.90;;;;;;5100409;28;20020;-68
2022/11/28 02:29:09;;;;;;;6.07;3.20;;;5.60;99.90;;;;;;5100321;28;20020;-68
2022/11/28 02:32:12;;;;;;;6.43;3.08;;;5.60;99.90;;;;;;5100106;28;20020;-67
2022/11/28 02:35:12;;;;;;;5.45;3.38;;;5.60;99.90;;;;;;5099648;28;20074;-68
2022/11/28 02:37:51;;;;;;;5.60;2.90;;;5.50;99.90;;;;;;5099643;28;20026;-67
2022/11/28 02:40:36;;;;;;;7.40;3.45;;;5.50;99.90;;;;;;5099361;28;20048;-67
2022/11/28 02:43:11;;;;;;;5.30;2.85;;;5.50;99.90;;;;;;5099916;28;20023;-67
2022/11/28 02:46:09;;;;;;;5.57;3.10;;;5.40;99.90;;;;;;5099303;28;20102;-67
2022/11/28 02:48:57;;;;;;;5.97;3.17;;;5.40;99.90;;;;;;5099634;28;20024;-67
2022/11/28 02:51:55;;;;;;;5.53;2.60;;;5.40;99.90;;;;;;5099414;28;20024;-68
2022/11/28 02:54:25;;;;;;;7.60;3.78;;;5.40;99.90;;;;;;5091334;28;20046;-67
2022/11/28 02:56:54;;;;;;;6.13;3.42;;;5.40;99.90;;;;;;5099077;28;20100;-68
2022/11/28 02:59:47;;;;;;;5.13;2.83;;;5.40;99.90;;;;;;5077550;28;20444;-68
2022/11/28 03:02:24;;;;;;;6.68;2.83;;;5.40;99.90;;;;;;5078688;28;20020;-68
2022/11/28 03:05:12;;;;;;;5.57;2.78;;;5.40;99.90;;;;;;5077577;28;20032;-68
2022/11/28 03:08:09;;;;;;;5.70;3.25;;;5.40;99.90;;;;;;5078770;28;20029;-68
2022/11/28 03:10:44;;;;;;;;;;;5.40;99.90;;;;;;5079264;28;20075;-68
2022/11/28 03:13:38;;;;;;;8.02;3.30;;;5.40;99.90;;;;;;5079109;28;20304;-68
2022/11/28 03:16:17;;;;;;;5.78;3.15;;;5.40;99.90;;;;;;5079571;28;20064;-67
2022/11/28 03:19:09;;;;;;;5.45;3.22;;;5.40;99.90;;;;;;5078509;28;20104;-68
2022/11/28 03:21:59;;;;;;;6.15;3.38;;;5.40;99.90;;;;;;5077000;28;20029;-68
2022/11/28 03:24:57;;;;;;;4.43;1.95;;;5.40;99.90;;;;;;5078910;28;20040;-68
2022/11/28 03:27:46;;;;;;;4.22;2.15;;;5.40;99.90;;;;;;5063287;28;20033;-68
2022/11/28 03:30:22;;;;;;;5.60;2.95;;;5.50;99.90;;;;;;5078187;28;20054;-68
2022/11/28 03:32:53;;;;;;;5.68;3.33;;;5.50;99.90;;;;;;5078684;28;20070;-68
2022/11/28 03:35:29;;;;;;;5.85;3.30;;;5.40;99.90;;;;;;5077856;28;20352;-68
2022/11/28 03:38:07;;;;;;;6.15;3.20;;;5.40;99.90;;;;;;5078584;28;20103;-68
2022/11/28 03:40:54;;;;;;;6.03;2.55;;;5.40;99.90;;;;;;5077969;28;20025;-68
2022/11/28 03:43:28;;;;;;;7.27;2.93;;;5.50;99.90;;;;;;5078654;28;20408;-68
2022/11/28 03:46:03;;;;;;;8.25;3.85;;;5.40;99.90;;;;;;5078091;28;20317;-68
2022/11/28 03:48:35;;;;;;;5.80;3.42;;;5.40;99.90;;;;;;5076707;28;20333;-68
2022/11/28 03:51:20;;;;;;;6.07;3.38;;;5.40;99.90;;;;;;5078074;28;20029;-68
2022/11/28 03:54:00;;;;;;;7.43;3.60;;;5.40;99.90;;;;;;5077779;28;20440;-68
2022/11/28 03:56:36;;;;;;;6.95;3.58;;;5.40;99.90;;;;;;5078190;28;20462;-68
2022/11/28 03:59:25;;;;;;;7.75;3.78;;;5.40;99.90;;;;;;5090835;28;20086;-68
2022/11/28 04:02:14;;;;;;;8.18;3.65;;;5.40;99.90;;;;;;5097797;28;20024;-68
2022/11/28 04:05:17;;;;;;;5.15;2.75;;;5.40;99.90;;;;;;5098166;28;20477;-68
2022/11/28 04:07:53;;;;;;;6.28;2.83;;;5.40;99.90;;;;;;5098281;28;20028;-68
2022/11/28 04:10:37;;;;;;;5.15;2.65;;;5.40;99.90;;;;;;5079668;28;20024;-68
2022/11/28 04:13:23;;;;;;;9.57;3.88;;;5.40;99.90;;;;;;5097799;28;20032;-68
2022/11/28 04:16:03;;;;;;;;;;;5.40;99.90;;;;;;5098522;28;20043;-68
2022/11/28 04:18:56;;;;;;;5.95;3.15;;;5.40;99.90;;;;;;5097773;28;19907;-68
2022/11/28 04:21:43;;;;;;;6.20;2.92;;;5.40;99.90;;;;;;5097984;28;20158;-68
2022/11/28 04:24:18;;;;;;;5.78;3.17;;;5.40;99.90;;;;;;5097862;28;20051;-68
2022/11/28 04:26:56;;;;;;;5.75;3.10;;;5.40;99.90;;;;;;5098210;28;20034;-68
2022/11/28 04:29:24;;;;;;;4.97;2.45;;;5.40;99.90;;;;;;5080142;28;20084;-68
2022/11/28 04:31:57;;;;;;;5.32;2.75;;;5.40;99.90;;;;;;5097813;28;20035;-68
2022/11/28 04:34:27;;;;;;;7.60;3.20;;;5.40;99.90;;;;;;5096363;28;20027;-67
2022/11/28 04:36:57;;;;;;;4.90;2.83;;;5.50;99.90;;;;;;5097702;28;20062;-68
2022/11/28 04:39:26;;;;;;;5.55;3.25;;;5.50;99.90;;;;;;5097122;28;20040;-68
2022/11/28 04:42:00;;;;;;;5.88;3.28;;;5.50;99.90;;;;;;5097090;28;20055;-68
2022/11/28 04:44:51;;;;;;;7.00;3.53;;;5.60;99.90;;;;;;5097084;28;20016;-68
2022/11/28 04:47:19;;;;;;;5.82;3.25;;;5.60;99.90;;;;;;5097005;28;20080;-68
2022/11/28 04:49:46;;;;;;;5.10;2.85;;;5.60;99.90;;;;;;5096920;28;20058;-68
2022/11/28 04:52:28;;;;;;;6.32;3.22;;;5.60;99.90;;;;;;5097499;28;20150;-68
2022/11/28 04:55:22;;;;;;;6.53;3.40;;;5.60;99.90;;;;;;5097407;28;20020;-68
2022/11/28 04:57:57;;;;;;;8.63;3.50;;;5.60;99.90;;;;;;5097385;28;20320;-68
2022/11/28 05:00:26;;;;;;;6.60;3.53;;;5.60;99.90;;;;;;5078881;28;20024;-68
2022/11/28 05:02:55;;;;;;;6.35;3.15;;;5.70;99.90;;;;;;5096960;28;20017;-68
2022/11/28 05:05:25;;;;;;;5.35;3.03;;;5.60;99.90;;;;;;5078737;28;20024;-68
2022/11/28 05:07:52;;;;;;;7.32;3.70;;;5.70;99.90;;;;;;5096748;28;20020;-68
2022/11/28 05:10:21;;;;;;;5.75;3.22;;;5.60;99.90;;;;;;5062152;28;20107;-68
2022/11/28 05:12:48;;;;;;;5.18;3.08;;;5.70;99.90;;;;;;5078896;28;20162;-68
2022/11/28 05:15:18;;;;;;;5.15;3.30;;;5.70;99.90;;;;;;5097115;28;20024;-68
2022/11/28 05:17:46;;;;;;;6.72;3.25;;;5.70;99.90;;;;;;5096675;28;20016;-68
2022/11/28 05:20:14;;;;;;;5.38;3.50;;;5.60;99.90;;;;;;5096591;28;20082;-68
2022/11/28 05:22:41;;;;;;;6.00;3.15;;;5.70;99.90;;;;;;5097280;28;20020;-68
2022/11/28 05:25:09;;;;;;;7.25;3.22;;;5.70;99.90;;;;;;5096514;28;20017;-68
2022/11/28 05:27:36;;;;;;;7.13;3.28;;;5.70;99.90;;;;;;5096567;28;20058;-68
2022/11/28 05:30:05;;;;;;;5.47;3.00;;;5.70;99.90;;;;;;5078568;28;20055;-68
2022/11/28 05:32:32;;;;;;;5.70;3.33;;;5.70;99.90;;;;;;5097199;28;20024;-68
2022/11/28 05:35:00;;;;;;;5.57;3.40;;;5.70;99.90;;;;;;5096363;28;20025;-68
2022/11/28 05:37:28;;;;;;;8.95;4.00;;;5.70;99.90;;;;;;5078563;28;20103;-67
2022/11/28 05:39:55;;;;;;;7.05;3.83;;;5.70;99.90;;;;;;5096976;28;20408;-68
2022/11/28 05:42:24;;;;;;;7.97;3.33;;;5.60;99.90;;;;;;5097077;28;20020;-68
2022/11/28 05:44:52;;;;;;;6.05;3.30;;;5.60;99.90;;;;;;5096346;28;20054;-68
2022/11/28 05:47:19;;;;;;;7.30;4.18;;;5.60;99.90;;;;;;5100687;28;20028;-68
2022/11/28 05:49:47;;;;;;;6.55;2.97;;;5.60;99.90;;;;;;5100591;28;20114;-68
2022/11/28 05:52:14;;;;;;;5.47;2.75;;;5.60;99.90;;;;;;5100982;28;20031;-68
2022/11/28 05:54:42;;;;;;;18.42;7.13;;;5.60;99.90;;;;;;5100752;28;20036;-68
2022/11/28 05:57:09;;;;;;;10.82;5.32;;;5.60;99.90;;;;;;5100523;28;20281;-68
2022/11/28 05:59:36;;;;;;;7.07;3.90;;;5.60;99.90;;;;;;5100083;28;20048;-68
2022/11/28 06:02:03;;;;;;;6.50;3.40;;;5.50;99.90;;;;;;5100135;28;20020;-68
2022/11/28 06:04:31;;;;;;;6.38;3.75;;;5.50;99.90;;;;;;5100518;28;20035;-67
2022/11/28 06:06:58;;;;;;;6.82;3.45;;;5.50;99.90;;;;;;5100570;28;20020;-67
2022/11/28 06:09:25;;;;;;;8.10;4.07;;;5.50;99.90;;;;;;5100016;28;20085;-68
2022/11/28 06:11:53;;;;;;;7.05;3.83;;;5.50;99.90;;;;;;5100203;28;20086;-68
2022/11/28 06:14:21;;;;;;;6.05;3.22;;;5.50;99.90;;;;;;5100008;28;20027;-68
2022/11/28 06:16:48;;;;;;;8.52;4.45;;;5.50;99.90;;;;;;5100357;28;20039;-67
2022/11/28 06:19:15;;;;;;;12.32;5.30;;;5.50;99.90;;;;;;5099708;28;20016;-68
2022/11/28 06:21:43;;;;;;;7.80;4.05;;;5.50;99.90;;;;;;5081669;28;20069;-68
2022/11/28 06:24:10;;;;;;;7.45;3.80;;;5.60;99.90;;;;;;5099905;28;20020;-68
2022/11/28 06:26:37;;;;;;;7.57;4.30;;;5.60;99.90;;;;;;5099690;28;20016;-67
2022/11/28 06:29:05;;;;;;;6.78;3.85;;;5.60;99.90;;;;;;5100682;28;20381;-69
2022/11/28 06:31:33;;;;;;;7.85;3.95;;;5.60;99.90;;;;;;5099541;28;20016;-68
2022/11/28 06:34:00;;;;;;;7.63;3.50;;;5.60;99.90;;;;;;5099552;28;20028;-67
2022/11/28 06:36:27;;;;;;;6.45;3.80;;;5.60;99.90;;;;;;5099479;28;20024;-67
2022/11/28 06:38:54;;;;;;;8.85;4.28;;;5.60;99.90;;;;;;5099700;28;20282;-68
2022/11/28 06:41:22;;;;;;;7.47;4.00;;;5.60;99.90;;;;;;5099939;28;20020;-77
2022/11/28 06:43:50;;;;;;;9.25;4.00;;;5.60;99.90;;;;;;5100066;28;20047;-80
2022/11/28 06:46:20;;;;;;;6.25;3.78;;;5.60;99.90;;;;;;5099275;28;20064;-67
2022/11/28 06:48:49;;;;;;;8.93;4.75;;;5.60;99.90;;;;;;5099244;28;20028;-67
2022/11/28 06:51:18;;;;;;;6.53;3.38;;;5.60;99.90;;;;;;5081245;28;20016;-68
2022/11/28 06:53:46;;;;;;;11.10;4.30;;;5.50;99.90;;;;;;5099268;28;20024;-67
2022/11/28 06:56:16;;;;;;;7.63;3.90;;;5.50;99.90;;;;;;5099030;28;20024;-67
2022/11/28 06:58:44;;;;;;;9.02;4.25;;;5.50;99.90;;;;;;5098108;28;20044;-68
2022/11/28 07:01:17;;;;;;;11.57;4.68;;;5.40;99.90;;;;;;5098988;28;20027;-68
2022/11/28 07:03:48;;;;;;;7.88;4.30;;;5.40;99.90;;;;;;5098900;28;20048;-74
2022/11/28 07:06:21;;;;;;;7.60;3.80;;;5.40;99.90;;;;;;5098884;28;20031;-72
2022/11/28 07:08:57;;;;;;;8.50;4.57;;;5.40;99.90;;;;;;5080896;28;20024;-69
2022/11/28 07:11:30;;;;;;;7.32;3.55;;;5.40;99.90;;;;;;5099043;28;20024;-70
2022/11/28 07:14:01;;;;;;;8.38;3.67;;;5.30;99.90;;;;;;5080887;28;20024;-68
2022/11/28 07:16:30;;;;;;;10.43;4.22;;;5.30;99.90;;;;;;5099213;28;20027;-69
2022/11/28 07:18:58;;;;;;;6.32;3.78;;;5.30;99.90;;;;;;5098442;28;20051;-72
2022/11/28 07:21:26;;;;;;;10.23;3.85;;;5.30;99.90;;;;;;5080770;28;20448;-72
2022/11/28 07:23:53;;;;;;;6.95;4.05;;;5.30;99.90;;;;;;5080136;28;20062;-73
2022/11/28 07:26:21;;;;;;;7.82;4.07;;;5.30;99.90;;;;;;5098838;28;20082;-73
2022/11/28 07:28:50;;;;;;;8.75;4.28;;;5.30;99.90;;;;;;5080511;28;20021;-74
2022/11/28 07:31:30;;;;;;;6.07;3.65;;;5.30;99.90;;;;;;5098746;28;20020;-75
2022/11/28 07:34:02;;;;;;;7.68;3.72;;;5.30;99.90;;;;;;5080285;28;20036;-73
2022/11/28 07:36:29;;;;;;;7.90;4.00;;;5.30;99.90;;;;;;5098907;28;20024;-76
2022/11/28 07:38:59;;;;;;;8.10;3.72;;;5.40;99.90;;;;;;5098585;28;20024;-75
2022/11/28 07:41:27;;;;;;;8.95;4.13;;;5.40;99.90;;;;;;5098528;28;20020;-76
2022/11/28 07:43:59;;;;;;;10.75;4.03;;;5.40;99.90;;;;;;5098385;28;20424;-75
2022/11/28 07:46:28;;;;;;;8.48;4.38;;;5.40;99.90;;;;;;5098440;28;20043;-72
2022/11/28 07:48:56;;;;;;;9.10;4.65;;;5.40;99.90;;;;;;5098261;28;20105;-71
2022/11/28 07:51:26;;;;;;;9.70;4.30;;;5.50;99.90;;;;;;5098028;28;20090;-74
2022/11/28 07:53:54;;;;;;;7.05;4.18;;;5.50;99.90;;;;;;5079997;28;20027;-74
2022/11/28 07:56:28;;;;;;;9.10;4.40;;;5.50;99.90;;;;;;5098193;28;20028;-72
2022/11/28 07:58:55;;;;;;;9.20;4.93;;;5.50;99.90;;;;;;5098001;28;20444;-70
2022/11/28 08:01:38;;;;;;;7.85;4.07;;;5.50;99.90;;;;;;5079843;28;20020;-71
2022/11/28 08:04:07;;;;;;;8.63;3.88;;;5.50;99.90;;;;;;5097731;28;20077;-71
2022/11/28 08:06:40;;;;;;;8.73;3.80;;;5.60;99.90;;;;;;5097743;28;20024;-70
2022/11/28 08:09:08;;;;;;;7.28;4.30;;;5.60;99.90;;;;;;5097779;28;20020;-70
2022/11/28 08:11:35;;;;;;;7.28;4.10;;;5.60;99.90;;;;;;5097664;28;20047;-69
2022/11/28 08:14:03;;;;;;;7.72;4.75;;;5.60;99.90;;;;;;5098137;28;20028;-70
2022/11/28 08:16:31;;;;;;;8.57;4.43;;;5.60;99.90;;;;;;5079883;28;20093;-71
2022/11/28 08:19:02;;;;;;;8.70;4.13;;;5.60;99.90;;;;;;5080314;28;20412;-69
2022/11/28 08:21:32;;;;;;;10.13;4.00;;;5.60;99.90;;;;;;5098054;28;20016;-70
2022/11/28 08:24:01;;;;;;;8.07;3.97;;;5.60;99.90;;;;;;5097477;28;20073;-74
2022/11/28 08:26:29;;;;;;;9.43;4.35;;;5.60;99.90;;;;;;5097429;28;20345;-75
2022/11/28 08:28:57;;;;;;;9.07;4.22;;;5.60;99.90;;;;;;5097536;28;20371;-76
2022/11/28 08:31:27;;;;;;;10.63;4.22;;;5.60;99.90;;;;;;5097274;28;20089;-71
2022/11/28 08:33:55;;;;;;;9.02;4.20;;;5.60;99.90;;;;;;5097651;28;20024;-71
2022/11/28 08:36:23;;;;;;;8.57;4.28;;;5.60;99.90;;;;;;5097804;28;20165;-67
2022/11/28 08:38:51;;;;;;;8.43;4.47;;;5.50;99.90;;;;;;5097366;28;20027;-71
2022/11/28 08:41:22;;;;;;;7.57;4.28;;;5.50;99.90;;;;;;5097147;28;20020;-70
2022/11/28 08:43:49;;;;;;;10.93;5.18;;;5.50;99.90;;;;;;5097091;28;20016;-70
2022/11/28 08:46:19;;;;;;;9.70;5.15;;;5.50;99.90;;;;;;5097198;28;20358;-67
2022/11/28 08:48:47;;;;;;;9.60;4.88;;;5.50;99.90;;;;;;5062520;28;20416;-70
2022/11/28 08:51:22;;;;;;;9.00;4.70;;;5.40;99.90;;;;;;5097254;28;20028;-72
2022/11/28 08:53:50;;;;;;;8.00;4.50;;;5.40;99.90;;;;;;5096835;28;20020;-72
2022/11/28 08:56:19;;;;;;;9.80;4.88;;;5.40;99.90;;;;;;5078957;28;20024;-71
2022/11/28 08:58:46;;;;;;;6.95;4.40;;;5.50;99.90;;;;;;5096559;28;20344;-71
2022/11/28 09:01:19;;;;;;;9.65;5.38;;;5.40;99.90;;;;;;5096831;28;20081;-71
2022/11/28 09:03:47;;;;;;;8.32;4.50;;;5.50;99.90;;;;;;5096890;28;20044;-71
2022/11/28 09:06:15;;;;;;;8.85;4.82;;;5.50;99.90;;;;;;5097334;28;20023;-71
2022/11/28 09:08:43;;;;;;;10.40;4.65;;;5.50;99.90;;;;;;5078784;28;20032;-69
2022/11/28 09:11:13;;;;;;;11.27;4.78;;;5.50;99.90;;;;;;5096732;28;20024;-67
2022/11/28 09:13:41;;;;;;;11.98;4.75;;;5.50;99.90;;;;;;5096872;28;20020;-71
2022/11/28 09:16:09;;;;;;;9.40;4.43;;;5.50;99.90;;;;;;5096851;28;20073;-68
2022/11/28 09:18:37;;;;;;;7.68;4.10;;;5.60;99.90;;;;;;5078675;28;20020;-75
2022/11/28 09:21:08;;;;;;;7.95;4.45;;;5.60;99.90;;;;;;5096287;28;20039;-73
2022/11/28 09:23:37;;;;;;;9.38;4.28;;;5.60;99.90;;;;;;5096768;28;20332;-72
2022/11/28 09:26:18;;;;;;;11.43;4.32;;;5.60;99.90;;;;;;5096526;28;20020;-74
2022/11/28 09:28:46;;;;;;;10.23;5.75;;;5.70;99.90;;;;;;5096540;28;20024;-73
2022/11/28 09:31:14;;;;;;;7.38;4.53;;;5.70;99.90;;;;;;5078569;28;20036;-75
2022/11/28 09:33:42;;;;;;;7.25;4.45;;;5.80;99.90;;;;;;5096634;28;20032;-72
2022/11/28 09:36:16;;;;;;;11.73;5.55;;;5.80;99.90;;;;;;5078531;28;20024;-74
2022/11/28 09:38:43;;;;;;;8.55;4.38;;;5.90;99.90;;;;;;5096515;28;20378;-72
2022/11/28 09:41:23;;;;;;;8.07;4.32;;;5.90;99.90;;;;;;5078495;28;20431;-74
2022/11/28 09:43:51;;;;;;;10.38;5.45;;;6.00;99.90;;;;;;5096856;28;20525;-72
2022/11/28 09:46:32;;;;;;;8.63;4.38;;;6.00;99.90;;;;;;5077851;28;20020;-72
2022/11/28 09:49:04;;;;;;;7.82;3.95;;;6.00;99.90;;;;;;5096278;28;20020;-68
2022/11/28 09:51:47;;;;;;;9.55;4.57;;;6.10;99.90;;;;;;5078387;28;20020;-69
2022/11/28 09:54:36;;;;;;;8.02;4.22;;;6.10;99.90;;;;;;5078528;28;20032;-69
2022/11/28 09:57:23;;;;;;;10.38;5.13;;;6.10;99.90;;;;;;5078310;28;20027;-72
2022/11/28 09:59:50;;;;;;;9.68;4.65;;;6.20;99.90;;;;;;5096193;28;20075;-71
2022/11/28 10:02:38;;;;;;;8.32;4.22;;;6.20;99.90;;;;;;5078364;28;20328;-71
2022/11/28 10:05:28;;;;;;;8.90;5.15;;;6.30;99.90;;;;;;5096051;28;20454;-72
2022/11/28 10:08:21;;;;;;;9.70;4.68;;;6.30;99.90;;;;;;5078206;28;20034;-70
2022/11/28 10:11:07;;;;;;;8.68;4.45;;;6.30;99.90;;;;;;5096470;28;20024;-71
2022/11/28 10:14:09;;;;;;;11.57;5.63;;;6.30;99.90;;;;;;5096142;28;20042;-71
2022/11/28 10:17:00;;;;;;;12.98;6.55;;;6.40;99.90;;;;;;5075171;28;20067;-71
2022/11/28 10:20:12;;;;;;;10.00;5.30;;;6.40;99.90;;;;;;5096416;28;20039;-70
2022/11/28 10:22:57;;;;;;;12.82;5.70;;;6.40;99.90;;;;;;5086219;28;20315;-71
2022/11/28 10:25:35;;;;;;;24.98;11.00;;;6.40;99.90;;;;;;5078103;28;20024;-72
2022/11/28 10:28:07;;;;;;;22.52;8.68;;;6.50;99.90;;;;;;5096147;28;20078;-68
2022/11/28 10:30:41;;;;;;;16.17;7.57;;;6.50;99.90;;;;;;5096012;28;20027;-71
2022/11/28 10:33:33;;;;;;;12.85;5.68;;;6.50;99.90;;;;;;5098154;28;20023;-68
2022/11/28 10:36:02;;;;;;;8.35;4.70;;;6.60;99.90;;;;;;5100001;28;20106;-69
2022/11/28 10:38:33;;;;;;;8.48;4.57;;;6.60;99.90;;;;;;5099458;28;20099;-69
2022/11/28 10:41:13;;;;;;;10.40;4.80;;;6.60;99.90;;;;;;5099699;28;20285;-69
2022/11/28 10:44:05;;;;;;;7.65;4.53;;;6.70;99.90;;;;;;5099796;28;20289;-68
2022/11/28 10:47:05;;;;;;;10.13;4.50;;;6.70;99.90;;;;;;5099877;28;20017;-68
2022/11/28 10:50:11;;;;;;;7.68;4.60;;;6.70;99.90;;;;;;5094778;28;20032;-68
2022/11/28 10:52:51;;;;;;;11.15;4.78;;;6.80;99.90;;;;;;5081119;28;20438;-68
2022/11/28 10:55:24;;;;;;;12.60;5.60;;;6.80;99.90;;;;;;5099095;28;20027;-68
2022/11/28 10:58:31;;;;;;;12.82;5.10;;;6.80;99.90;;;;;;5099113;28;20024;-69
2022/11/28 11:00:59;;;;;;;11.52;4.70;;;6.80;99.90;;;;;;5076612;28;20040;-69
2022/11/28 11:03:31;;;;;;;9.65;4.97;;;6.80;99.90;;;;;;5099915;28;20308;-71
2022/11/28 11:05:59;;;;;;;9.65;4.97;;;6.80;99.90;;;;;;5080911;28;20366;-71
2022/11/28 11:08:29;;;;;;;10.40;5.15;;;6.90;99.90;;;;;;5080954;28;20028;-70
2022/11/28 11:11:14;;;;;;;11.20;5.57;;;6.90;99.90;;;;;;5098795;28;20024;-71
2022/11/28 11:13:59;;;;;;;10.68;4.75;;;7.00;99.90;;;;;;5099177;28;20356;-71
2022/11/28 11:16:51;;;;;;;10.75;4.97;;;7.00;99.90;;;;;;5098640;28;20031;-70
2022/11/28 11:19:29;;;;;;;8.93;4.65;;;7.00;99.90;;;;;;5099091;28;20286;-70
2022/11/28 11:22:06;;;;;;;8.02;4.28;;;7.10;99.90;;;;;;5080610;28;20016;-71
2022/11/28 11:24:34;;;;;;;8.02;4.25;;;7.10;99.90;;;;;;5099073;28;20051;-71
2022/11/28 11:27:17;;;;;;;9.88;5.43;;;7.10;99.90;;;;;;5099115;28;20020;-71
2022/11/28 11:29:44;;;;;;;9.40;4.88;;;7.10;99.90;;;;;;5080600;28;20385;-71
2022/11/28 11:32:29;;;;;;;12.25;4.45;;;7.10;99.90;;;;;;5081028;28;20057;-69
2022/11/28 11:34:59;;;;;;;8.50;4.60;;;7.10;99.90;;;;;;5098377;28;20099;-71
2022/11/28 11:37:37;;;;;;;14.38;5.15;;;7.20;99.90;;;;;;5098534;28;20024;-70
2022/11/28 11:40:26;;;;;;;9.93;4.80;;;7.20;99.90;;;;;;5080243;28;20068;-70
2022/11/28 11:42:58;;;;;;;8.63;4.80;;;7.20;99.90;;;;;;5097740;28;20020;-70
2022/11/28 11:45:32;;;;;;;10.80;4.45;;;7.20;99.90;;;;;;5098669;28;20017;-72
2022/11/28 11:48:00;;;;;;;9.52;5.00;;;7.20;99.90;;;;;;5098297;28;20038;-75
2022/11/28 11:50:30;;;;;;;8.15;5.30;;;7.20;99.90;;;;;;5098017;28;20028;-74
2022/11/28 11:53:12;;;;;;;9.52;4.43;;;7.20;99.90;;;;;;5098048;28;20031;-74
2022/11/28 11:55:52;;;;;;;10.00;5.47;;;7.20;99.90;;;;;;5098190;28;20358;-74
2022/11/28 11:58:37;;;;;;;8.80;4.97;;;7.30;99.90;;;;;;5097913;28;20036;-74
2022/11/28 12:01:05;;;;;;;8.70;5.50;;;7.30;99.90;;;;;;5098132;28;20024;-74
2022/11/28 12:03:55;;;;;;;9.63;4.78;;;7.30;99.90;;;;;;5097862;28;20073;-74
2022/11/28 12:06:32;;;;;;;10.65;5.13;;;7.30;99.90;;;;;;5097787;28;20027;-74
2022/11/28 12:09:34;;;;;;;19.42;5.90;;;7.30;99.90;;;;;;5079988;28;20020;-73
2022/11/28 12:12:09;;;;;;;11.23;5.93;;;7.30;99.90;;;;;;5097988;28;20020;-72
2022/11/28 12:14:38;;;;;;;9.98;5.55;;;7.40;99.90;;;;;;5079518;28;20115;-71
2022/11/28 12:17:29;;;;;;;9.43;5.25;;;7.40;99.90;;;;;;5080099;28;20023;-72
2022/11/28 12:20:32;;;;;;;8.30;4.18;;;7.40;99.90;;;;;;5097996;28;20426;-69
2022/11/28 12:23:40;;;;;;;8.65;5.28;;;7.40;99.90;;;;;;5097515;28;20020;-71
2022/11/28 12:26:31;;;;;;;10.25;5.40;;;7.40;99.90;;;;;;5097705;28;20103;-71
2022/11/28 12:29:14;;;;;;;13.10;5.43;;;7.40;99.90;;;;;;5098142;28;20052;-69
2022/11/28 12:32:23;;;;;;;10.13;5.70;;;7.40;99.90;;;;;;5097886;28;20028;-73
2022/11/28 12:35:25;;;;;;;8.63;5.22;;;7.40;99.90;;;;;;5097280;28;20030;-68
2022/11/28 12:38:26;;;;;;;9.57;5.38;;;7.40;99.90;;;;;;5097863;28;20408;-70
2022/11/28 12:41:13;;;;;;;9.77;4.68;;;7.30;99.90;;;;;;5097740;28;20024;-70
2022/11/28 12:44:10;;;;;;;10.07;5.38;;;7.30;99.90;;;;;;5097087;28;20025;-72
2022/11/28 12:46:43;;;;;;;11.43;5.68;;;7.30;99.90;;;;;;5079308;28;20023;-73
2022/11/28 12:49:28;;;;;;;10.60;4.97;;;7.20;99.90;;;;;;5097427;28;20047;-73
2022/11/28 12:52:03;;;;;;;10.90;5.18;;;7.30;99.90;;;;;;5097182;28;20020;-72
2022/11/28 12:54:55;;;;;;;8.75;4.82;;;7.20;99.90;;;;;;5096751;28;20020;-73
2022/11/28 12:57:43;;;;;;;12.40;5.15;;;7.20;99.90;;;;;;5097500;28;20025;-73
2022/11/28 13:00:19;;;;;;;13.45;6.90;;;7.20;99.90;;;;;;5096707;28;20048;-69
2022/11/28 13:03:08;;;;;;;10.65;5.43;;;7.20;99.90;;;;;;5097089;28;20313;-70
2022/11/28 13:06:03;;;;;;;13.63;5.15;;;7.20;99.90;;;;;;5096755;28;20028;-70
2022/11/28 13:08:58;;;;;;;16.63;8.98;;;7.20;99.90;;;;;;5079219;28;20479;-70
2022/11/28 13:11:29;;;;;;;12.90;6.53;;;7.10;99.90;;;;;;5097269;28;20078;-70
2022/11/28 13:14:34;;;;;;;12.77;6.72;;;7.10;99.90;;;;;;5097389;28;20100;-72
2022/11/28 13:17:23;;;;;;;9.57;5.53;;;7.10;99.90;;;;;;5008214;28;20061;-71
2022/11/28 13:20:04;;;;;;;10.52;5.40;;;7.10;99.90;;;;;;5096923;28;20023;-71
2022/11/28 13:23:00;;;;;;;9.75;4.80;;;7.10;99.90;;;;;;5096791;28;20024;-71
2022/11/28 13:25:45;;;;;;;9.55;4.88;;;7.10;99.90;;;;;;5097197;28;20116;-72
2022/11/28 13:28:51;;;;;;;9.48;5.05;;;7.00;99.90;;;;;;5096596;28;20035;-72
2022/11/28 13:31:47;;;;;;;12.05;6.05;;;7.00;99.90;;;;;;5096848;28;20353;-72
2022/11/28 13:34:19;;;;;;;12.38;6.35;;;7.00;99.90;;;;;;5096368;28;20031;-71
2022/11/28 13:37:06;;;;;;;11.32;5.72;;;7.00;99.90;;;;;;5078589;28;20058;-73
2022/11/28 13:40:05;;;;;;;9.05;5.15;;;7.00;99.90;;;;;;5096419;28;20396;-74
2022/11/28 13:42:51;;;;;;;12.13;6.13;;;7.00;99.90;;;;;;5096869;28;20024;-71